Time;durP1;ratioP1;P1;durP2;ratioP2;P2;SDS_P1;SDS_P2;PMS_P1;PMS_P2;Temp;Humidity;BMP_temperature;BMP_pressure;BME280_temperature;BME280_humidity;BME280_pressure;Samples;Min_cycle;Max_cycle;Signal;HPM_P1;HPM_P2
2021/10/03 00:00:12;;;;;;;5.55;3.65;;;;;;;18.93;46.94;97836.69;4421813;32;20089;-68
2021/10/03 00:02:41;;;;;;;6.10;3.83;;;;;;;18.73;47.05;97832.62;4419237;32;20045;-68
2021/10/03 00:05:11;;;;;;;4.85;2.87;;;;;;;18.77;47.30;97835.84;4420006;32;20104;-68
2021/10/03 00:07:40;;;;;;;5.22;2.55;;;;;;;18.66;47.40;97830.50;4423442;32;20060;-68
2021/10/03 00:10:09;;;;;;;4.93;2.35;;;;;;;18.55;47.46;97838.59;4419914;32;20166;-68
2021/10/03 00:12:35;;;;;;;3.28;2.25;;;;;;;18.33;48.09;97842.84;4420507;32;20038;-68
2021/10/03 00:15:02;;;;;;;2.80;2.25;;;;;;;18.33;48.02;97847.75;4418886;32;20144;-68
2021/10/03 00:17:28;;;;;;;3.53;1.80;;;;;;;18.30;47.91;97843.19;4422260;32;20051;-68
2021/10/03 00:19:54;;;;;;;3.15;1.90;;;;;;;18.45;47.63;97855.47;4418750;32;20108;-68
2021/10/03 00:22:21;;;;;;;4.50;2.00;;;;;;;18.46;47.71;97853.38;4417688;32;20080;-68
2021/10/03 00:24:48;;;;;;;3.92;1.73;;;;;;;18.27;47.83;97855.69;4421792;32;20069;-68
2021/10/03 00:27:13;;;;;;;3.78;1.62;;;;;;;18.14;48.05;97856.59;4419711;32;20176;-68
2021/10/03 00:29:39;;;;;;;2.78;1.80;;;;;;;17.97;47.99;97861.22;4421831;32;20112;-68
2021/10/03 00:32:05;;;;;;;1.80;1.20;;;;;;;18.11;47.57;97854.84;4423529;32;20096;-68
2021/10/03 00:34:31;;;;;;;2.87;1.20;;;;;;;18.12;47.55;97858.44;4423539;32;20041;-68
2021/10/03 00:36:57;;;;;;;3.80;1.52;;;;;;;17.93;47.46;97861.56;4423797;32;20126;-68
2021/10/03 00:39:23;;;;;;;2.87;1.27;;;;;;;17.92;47.40;97869.31;4422807;32;20409;-68
2021/10/03 00:41:49;;;;;;;4.12;1.58;;;;;;;18.05;47.31;97871.31;4421292;32;20074;-68
2021/10/03 00:44:15;;;;;;;2.95;0.90;;;;;;;17.72;47.80;97863.66;4406638;32;20089;-68
2021/10/03 00:46:41;;;;;;;2.30;1.15;;;;;;;17.76;47.76;97873.38;4422821;32;20066;-68
2021/10/03 00:49:06;;;;;;;2.85;0.93;;;;;;;17.65;48.21;97879.31;4419808;32;20026;-68
2021/10/03 00:51:32;;;;;;;7.12;1.52;;;;;;;17.68;47.96;97881.06;4421328;32;20066;-68
2021/10/03 00:53:58;;;;;;;2.55;0.73;;;;;;;17.71;47.65;97882.78;4421020;32;20096;-68
2021/10/03 00:56:24;;;;;;;2.35;0.70;;;;;;;17.72;47.43;97897.78;4422448;32;20033;-68
2021/10/03 00:58:50;;;;;;;2.80;1.20;;;;;;;17.76;47.86;97896.13;4420071;32;20453;-68
2021/10/03 01:01:16;;;;;;;1.87;0.77;;;;;;;17.64;47.94;97899.78;4421282;32;20069;-67
2021/10/03 01:03:42;;;;;;;3.33;0.80;;;;;;;17.75;47.64;97891.00;4420857;32;20045;-67
2021/10/03 01:06:08;;;;;;;3.28;0.88;;;;;;;17.66;47.87;97900.78;4421182;32;20038;-69
2021/10/03 01:08:36;;;;;;;5.47;1.40;;;;;;;17.55;48.30;97914.50;4405308;32;20116;-67
2021/10/03 01:11:04;;;;;;;3.65;0.68;;;;;;;17.64;47.77;97911.94;4422331;32;20080;-67
2021/10/03 01:13:32;;;;;;;4.18;0.80;;;;;;;17.63;47.78;97907.56;4419882;32;20038;-67
2021/10/03 01:15:57;;;;;;;4.68;1.00;;;;;;;17.55;47.63;97905.97;4421353;32;20126;-69
2021/10/03 01:18:25;;;;;;;4.25;1.23;;;;;;;17.29;48.28;97926.72;4417776;32;20079;-67
2021/10/03 01:20:52;;;;;;;2.80;0.73;;;;;;;17.42;48.06;97926.66;4422143;32;20108;-67
2021/10/03 01:23:18;;;;;;;3.92;1.02;;;;;;;17.14;48.09;97914.41;4421280;32;20042;-69
2021/10/03 01:25:49;;;;;;;4.43;0.98;;;;;;;16.91;49.05;97925.50;4418032;32;20049;-69
2021/10/03 01:28:16;;;;;;;4.07;1.05;;;;;;;16.82;49.00;97917.44;4418139;32;20070;-69
2021/10/03 01:30:45;;;;;;;2.72;1.10;;;;;;;16.71;49.28;97914.84;4419152;32;20041;-69
2021/10/03 01:33:12;;;;;;;6.60;1.45;;;;;;;16.69;49.31;97919.53;4417149;32;20056;-67
2021/10/03 01:35:38;;;;;;;6.20;1.20;;;;;;;16.38;50.17;97928.91;4418631;32;20018;-67
2021/10/03 01:38:04;;;;;;;3.78;1.50;;;;;;;16.79;49.31;97909.25;4417648;32;20077;-67
2021/10/03 01:40:30;;;;;;;5.60;1.30;;;;;;;16.59;49.68;97905.00;4408282;32;20052;-67
2021/10/03 01:42:58;;;;;;;3.35;1.35;;;;;;;16.37;50.06;97907.50;4422671;32;20377;-68
2021/10/03 01:45:24;;;;;;;9.25;1.50;;;;;;;16.54;49.61;97910.81;4418639;32;20053;-67
2021/10/03 01:50:50;;;;;;;5.93;0.85;;;;;;;16.69;48.87;97908.94;3997693;31;15017725;-69
2021/10/03 01:53:21;;;;;;;3.00;0.93;;;;;;;16.66;48.88;97912.13;4465706;32;20079;-69
2021/10/03 01:55:48;;;;;;;9.25;1.20;;;;;;;16.90;48.41;97914.69;4465541;32;20117;-69
2021/10/03 01:58:16;;;;;;;6.25;0.70;;;;;;;16.72;48.33;97909.94;4461297;32;20458;-69
2021/10/03 02:00:46;;;;;;;5.12;0.73;;;;;;;16.72;48.35;97910.66;4464857;32;20443;-68
2021/10/03 02:03:12;;;;;;;10.35;0.90;;;;;;;16.22;48.96;97915.78;4464335;32;20033;-68
2021/10/03 02:05:42;;;;;;;4.72;0.82;;;;;;;15.98;49.25;97906.19;4462936;32;20033;-68
2021/10/03 02:08:10;;;;;;;4.35;0.70;;;;;;;15.83;48.82;97863.41;4464395;32;20066;-68
2021/10/03 02:10:41;;;;;;;5.97;0.70;;;;;;;16.33;48.48;97902.19;4447954;32;20090;-69
2021/10/03 02:13:09;;;;;;;2.05;0.50;;;;;;;16.03;48.89;97898.88;4463496;32;20089;-69
2021/10/03 02:15:36;;;;;;;4.20;0.75;;;;;;;16.50;48.10;97894.09;4461944;32;20093;-69
2021/10/03 02:18:12;;;;;;;6.12;0.57;;;;;;;16.35;48.15;97908.06;4462313;32;20079;-68
2021/10/03 02:20:38;;;;;;;1.98;0.70;;;;;;;16.39;47.86;97894.31;4447619;32;20618;-69
2021/10/03 02:23:07;;;;;;;4.68;0.80;;;;;;;16.03;48.77;97896.03;4462847;32;20119;-68
2021/10/03 02:25:32;;;;;;;2.72;0.70;;;;;;;15.89;49.00;97900.16;4463545;32;20034;-69
2021/10/03 02:27:58;;;;;;;5.62;0.60;;;;;;;15.89;48.72;97892.41;4464770;32;20418;-69
2021/10/03 02:30:24;;;;;;;5.75;0.62;;;;;;;15.76;49.14;97886.75;4460496;32;20068;-68
2021/10/03 02:32:50;;;;;;;3.97;0.73;;;;;;;15.93;48.75;97881.50;4463529;32;20099;-69
2021/10/03 02:35:16;;;;;;;4.60;0.93;;;;;;;15.94;48.55;97882.28;4461842;32;20447;-68
2021/10/03 02:37:43;;;;;;;2.85;0.75;;;;;;;15.81;49.08;97902.88;4463090;32;20064;-69
2021/10/03 02:40:14;;;;;;;4.37;0.60;;;;;;;15.99;48.64;97892.78;4465525;32;20041;-68
2021/10/03 02:42:41;;;;;;;6.95;1.00;;;;;;;16.09;48.58;97898.78;4464094;32;20112;-68
2021/10/03 02:45:08;;;;;;;1.62;0.75;;;;;;;16.07;48.73;97901.41;4460024;32;20069;-68
2021/10/03 02:47:35;;;;;;;5.43;0.80;;;;;;;15.85;49.11;97900.50;4463503;32;20197;-68
2021/10/03 02:50:01;;;;;;;4.37;1.10;;;;;;;15.57;49.65;97899.44;4461973;32;20049;-69
2021/10/03 02:52:27;;;;;;;2.58;0.82;;;;;;;15.86;48.97;97898.41;4461254;32;20452;-68
2021/10/03 02:54:52;;;;;;;4.87;0.98;;;;;;;15.56;49.47;97897.91;4463543;32;20097;-68
2021/10/03 02:57:18;;;;;;;3.70;0.80;;;;;;;15.64;49.48;97891.06;4464408;32;20025;-68
2021/10/03 02:59:44;;;;;;;3.17;0.80;;;;;;;15.58;49.51;97886.78;4458512;32;20106;-69
2021/10/03 03:02:10;;;;;;;2.55;0.82;;;;;;;15.22;50.23;97891.22;4447575;32;20072;-68
2021/10/03 03:04:36;;;;;;;5.32;0.80;;;;;;;15.00;51.06;97895.16;4450445;32;20092;-69
2021/10/03 03:07:02;;;;;;;7.70;1.15;;;;;;;14.93;51.12;97898.59;4451343;32;20072;-68
2021/10/03 03:09:28;;;;;;;3.72;0.55;;;;;;;15.06;51.07;97909.22;4453921;32;20545;-69
2021/10/03 03:11:53;;;;;;;4.07;1.10;;;;;;;14.82;51.43;97909.31;4448675;32;20073;-68
2021/10/03 03:14:19;;;;;;;3.75;1.15;;;;;;;14.78;51.89;97898.28;4439253;32;20466;-68
2021/10/03 03:16:48;;;;;;;3.30;1.30;;;;;;;14.91;51.73;97908.94;4449622;32;20140;-69
2021/10/03 03:19:14;;;;;;;3.10;1.27;;;;;;;15.08;51.43;97906.63;4454498;32;20104;-69
2021/10/03 03:21:40;;;;;;;6.78;2.03;;;;;;;14.80;52.03;97903.41;4451328;32;20084;-68
2021/10/03 03:24:07;;;;;;;5.97;2.05;;;;;;;14.83;52.41;97900.28;4453652;32;20095;-68
2021/10/03 03:26:34;;;;;;;12.75;3.08;;;;;;;15.07;52.12;97902.28;4451954;32;20064;-68
2021/10/03 03:29:00;;;;;;;6.00;2.28;;;;;;;14.56;53.36;97909.12;4448052;32;20108;-68
2021/10/03 03:31:26;;;;;;;4.00;2.08;;;;;;;14.75;52.80;97901.41;4451233;32;20136;-68
2021/10/03 03:33:51;;;;;;;5.12;2.30;;;;;;;14.58;53.21;97901.66;4449729;32;20077;-68
2021/10/03 03:36:18;;;;;;;4.62;2.55;;;;;;;14.45;53.55;97907.22;4453525;32;20399;-68
2021/10/03 03:38:45;;;;;;;6.03;2.30;;;;;;;14.81;52.67;97905.72;4449553;32;20068;-69
2021/10/03 03:41:14;;;;;;;5.72;2.17;;;;;;;14.87;52.52;97919.78;4454178;32;20029;-68
2021/10/03 03:43:42;;;;;;;8.15;2.30;;;;;;;15.09;52.27;97927.97;4452320;32;20073;-69
2021/10/03 03:46:08;;;;;;;9.27;2.03;;;;;;;15.41;51.32;97931.66;4450920;32;20034;-69
2021/10/03 03:48:34;;;;;;;10.73;2.35;;;;;;;15.33;51.27;97939.19;4454048;32;20025;-68
2021/10/03 03:51:03;;;;;;;6.28;2.58;;;;;;;15.44;50.62;97944.75;4452063;32;20116;-68
2021/10/03 03:53:32;;;;;;;5.30;1.95;;;;;;;15.67;49.98;97949.50;4450536;32;20115;-68
2021/10/03 03:55:58;;;;;;;7.72;2.17;;;;;;;15.70;49.84;97953.34;4449736;32;20409;-69
2021/10/03 03:58:23;;;;;;;4.97;1.83;;;;;;;15.81;48.98;97958.81;4453401;32;20304;-69
2021/10/03 04:00:49;;;;;;;8.02;1.60;;;;;;;15.83;49.22;97953.38;4453121;32;20075;-68
2021/10/03 04:03:15;;;;;;;6.68;1.65;;;;;;;15.90;48.69;97966.94;4451569;32;20030;-68
2021/10/03 04:05:42;;;;;;;6.65;1.33;;;;;;;15.89;48.37;97976.72;4449053;32;20021;-68
2021/10/03 04:08:08;;;;;;;4.00;1.45;;;;;;;15.71;48.50;97977.56;4452998;32;20073;-69
2021/10/03 04:10:34;;;;;;;7.75;1.30;;;;;;;16.10;48.00;97977.66;4449972;32;21192;-69
2021/10/03 04:13:00;;;;;;;4.68;1.30;;;;;;;16.28;47.81;97988.16;4451449;32;20045;-69
2021/10/03 04:15:25;;;;;;;7.65;1.62;;;;;;;16.22;47.76;98001.69;4451071;32;20146;-69
2021/10/03 04:17:51;;;;;;;5.60;1.00;;;;;;;16.34;47.62;98011.53;4453755;32;20041;-69
2021/10/03 04:20:16;;;;;;;6.10;0.93;;;;;;;16.19;48.02;98019.00;4450307;32;20049;-68
2021/10/03 04:22:42;;;;;;;3.60;1.00;;;;;;;16.17;47.79;98025.22;4450539;32;20055;-69
2021/10/03 04:25:08;;;;;;;7.72;0.90;;;;;;;16.23;47.52;98016.66;4449757;32;20052;-69
2021/10/03 04:27:34;;;;;;;4.47;0.75;;;;;;;16.11;48.03;98027.44;4451403;32;20021;-69
2021/10/03 04:30:01;;;;;;;4.93;0.70;;;;;;;16.11;47.87;98027.44;4453144;32;20048;-68
2021/10/03 04:32:27;;;;;;;4.12;0.85;;;;;;;16.31;47.33;98032.47;4450263;32;20391;-69
2021/10/03 04:34:53;;;;;;;6.37;1.10;;;;;;;16.05;47.80;98023.91;4452394;32;20080;-69
2021/10/03 04:37:19;;;;;;;9.07;1.15;;;;;;;16.18;47.16;98023.94;4455043;32;20033;-68
2021/10/03 04:39:45;;;;;;;5.43;0.70;;;;;;;16.27;46.94;98017.84;4451815;32;20063;-68
2021/10/03 04:42:11;;;;;;;7.50;0.90;;;;;;;15.87;47.69;98030.41;4451716;32;20033;-68
2021/10/03 04:44:36;;;;;;;11.00;1.02;;;;;;;16.00;47.51;98033.28;4436576;32;20045;-68
2021/10/03 04:47:02;;;;;;;5.68;1.12;;;;;;;15.78;48.10;98020.19;4449345;32;20029;-68
2021/10/03 04:49:28;;;;;;;12.05;3.30;;;;;;;15.73;47.84;98009.72;4450438;32;20163;-68
2021/10/03 04:51:53;;;;;;;8.35;0.88;;;;;;;15.68;48.40;98013.41;4453257;32;20414;-68
2021/10/03 04:54:19;;;;;;;5.95;0.90;;;;;;;15.65;48.35;98005.22;4449400;32;20156;-68
2021/10/03 04:56:45;;;;;;;5.60;0.80;;;;;;;15.52;48.47;98016.47;4449452;32;20037;-68
2021/10/03 04:59:11;;;;;;;2.62;1.00;;;;;;;15.69;48.00;98006.44;4452224;32;21114;-68
2021/10/03 05:01:37;;;;;;;4.90;0.80;;;;;;;15.67;48.04;98002.59;4451794;32;20414;-68
2021/10/03 05:04:03;;;;;;;6.37;0.85;;;;;;;15.60;48.29;98012.50;4450695;32;20096;-68
2021/10/03 05:06:29;;;;;;;4.28;0.80;;;;;;;15.40;48.83;98012.31;4450720;32;20030;-68
2021/10/03 05:08:54;;;;;;;4.93;0.77;;;;;;;15.31;48.76;98024.75;4451230;32;20021;-68
2021/10/03 05:11:20;;;;;;;6.70;1.05;;;;;;;15.44;48.43;98024.84;4452212;32;20092;-68
2021/10/03 05:13:46;;;;;;;9.02;1.00;;;;;;;15.81;47.86;98033.28;4449240;32;20140;-68
2021/10/03 05:16:12;;;;;;;5.55;0.57;;;;;;;15.90;47.47;98035.72;4448980;32;20028;-68
2021/10/03 05:18:37;;;;;;;3.22;0.73;;;;;;;15.76;47.70;98039.84;4450349;32;20042;-68
2021/10/03 05:21:04;;;;;;;8.60;0.95;;;;;;;15.94;47.21;98044.72;4435631;32;20045;-68
2021/10/03 05:23:31;;;;;;;6.53;0.80;;;;;;;16.01;47.19;98051.06;4449157;32;20489;-68
2021/10/03 05:25:56;;;;;;;8.15;0.70;;;;;;;16.05;47.23;98057.19;4451673;32;20450;-68
2021/10/03 05:28:22;;;;;;;4.78;0.80;;;;;;;15.78;47.54;98040.03;4449760;32;20055;-68
2021/10/03 05:30:48;;;;;;;5.93;0.75;;;;;;;15.86;47.38;98052.31;4448192;32;20076;-68
2021/10/03 05:33:14;;;;;;;3.42;0.73;;;;;;;15.92;47.09;98050.16;4451009;32;20076;-68
2021/10/03 05:35:43;;;;;;;4.43;0.75;;;;;;;15.95;46.95;98048.28;4449496;32;20033;-68
2021/10/03 05:38:09;;;;;;;4.55;0.90;;;;;;;15.84;47.12;98034.31;4451018;32;20103;-68
2021/10/03 05:40:35;;;;;;;4.95;0.68;;;;;;;15.85;47.09;98047.16;4449591;32;20037;-68
2021/10/03 05:43:01;;;;;;;5.78;0.90;;;;;;;15.50;47.74;98034.03;4450766;32;20097;-68
2021/10/03 05:45:27;;;;;;;7.75;1.33;;;;;;;15.51;47.81;98041.25;4449473;32;20490;-68
2021/10/03 05:47:53;;;;;;;7.78;0.75;;;;;;;15.38;48.25;98055.34;4451979;32;20072;-68
2021/10/03 05:50:19;;;;;;;5.30;0.80;;;;;;;15.36;48.38;98054.31;4451082;32;20385;-68
2021/10/03 05:52:44;;;;;;;5.45;0.90;;;;;;;15.23;48.49;98051.38;4449716;32;20094;-68
2021/10/03 05:55:10;;;;;;;5.47;0.75;;;;;;;15.17;48.78;98057.13;4447423;32;20119;-68
2021/10/03 05:57:36;;;;;;;8.98;0.90;;;;;;;14.86;49.49;98045.66;4451431;32;20104;-68
2021/10/03 06:00:04;;;;;;;4.75;0.90;;;;;;;15.07;48.99;98043.88;4450901;32;20037;-68
2021/10/03 06:02:30;;;;;;;3.78;0.80;;;;;;;15.24;48.89;98047.25;4445828;32;20572;-68
2021/10/03 06:04:56;;;;;;;4.05;0.73;;;;;;;15.09;49.08;98044.09;4448676;32;20072;-68
2021/10/03 06:07:22;;;;;;;9.43;1.00;;;;;;;15.29;48.57;98040.75;4452492;32;20080;-68
2021/10/03 06:09:47;;;;;;;5.82;0.75;;;;;;;15.06;49.05;98045.94;4451372;32;20021;-68
2021/10/03 06:12:13;;;;;;;7.62;1.30;;;;;;;15.35;48.59;98032.94;4448906;32;20060;-68
2021/10/03 06:14:39;;;;;;;3.33;0.98;;;;;;;15.56;47.95;98036.81;4448779;32;20085;-68
2021/10/03 06:17:05;;;;;;;7.82;0.85;;;;;;;15.44;48.20;98043.94;4451434;32;20099;-68
2021/10/03 06:19:31;;;;;;;5.40;1.60;;;;;;;15.52;48.06;98042.00;4449578;32;20444;-68
2021/10/03 06:21:58;;;;;;;5.12;0.90;;;;;;;15.36;48.38;98049.41;4450451;32;20102;-68
2021/10/03 06:24:23;;;;;;;5.10;0.90;;;;;;;15.50;48.00;98036.13;4449868;32;20103;-68
2021/10/03 06:26:49;;;;;;;5.62;1.10;;;;;;;15.57;47.63;98046.81;4452858;32;20076;-68
2021/10/03 06:29:16;;;;;;;8.70;1.00;;;;;;;15.70;47.45;98044.03;4448648;32;20017;-68
2021/10/03 06:31:41;;;;;;;8.55;1.23;;;;;;;15.64;47.88;98066.03;4448862;32;20033;-68
2021/10/03 06:34:07;;;;;;;5.45;0.95;;;;;;;15.54;47.55;98054.34;4448724;32;20056;-68
2021/10/03 06:36:33;;;;;;;7.18;1.00;;;;;;;15.54;47.61;98057.19;4450491;32;20036;-68
2021/10/03 06:38:59;;;;;;;8.75;1.05;;;;;;;15.55;47.62;98057.94;4452581;32;20469;-68
2021/10/03 06:41:25;;;;;;;5.18;0.93;;;;;;;15.86;47.08;98057.19;4451740;32;20113;-68
2021/10/03 06:43:50;;;;;;;5.12;1.00;;;;;;;15.67;47.32;98070.63;4450707;32;20033;-68
2021/10/03 06:46:17;;;;;;;5.43;1.00;;;;;;;15.97;46.70;98071.22;4454933;32;20098;-68
2021/10/03 06:48:43;;;;;;;3.92;0.70;;;;;;;15.97;46.48;98068.38;4456460;32;20033;-68
2021/10/03 06:51:09;;;;;;;2.85;0.80;;;;;;;16.08;46.43;98073.91;4453695;32;20049;-68
2021/10/03 06:53:35;;;;;;;7.97;1.00;;;;;;;15.91;46.72;98081.88;4452714;32;20156;-68
2021/10/03 06:56:03;;;;;;;5.57;1.00;;;;;;;15.98;46.53;98089.00;4451623;32;20080;-68
2021/10/03 06:58:28;;;;;;;9.07;1.80;;;;;;;15.92;46.56;98091.91;4453749;32;20037;-68
2021/10/03 07:00:54;;;;;;;2.92;1.23;;;;;;;15.87;46.42;98096.37;4452622;32;20020;-68
2021/10/03 07:03:20;;;;;;;5.95;0.90;;;;;;;16.05;46.31;98100.50;4450692;32;20077;-68
2021/10/03 07:05:46;;;;;;;4.70;0.80;;;;;;;15.94;46.30;98095.00;4448694;32;20194;-68
2021/10/03 07:08:12;;;;;;;2.78;0.95;;;;;;;15.89;46.42;98084.47;4455470;32;20465;-68
2021/10/03 07:10:39;;;;;;;10.68;1.52;;;;;;;15.71;46.92;98079.63;4452546;32;20055;-69
2021/10/03 07:13:05;;;;;;;4.32;0.73;;;;;;;15.56;47.29;98077.22;4453961;32;20056;-68
2021/10/03 07:15:32;;;;;;;8.02;0.98;;;;;;;15.53;47.32;98086.06;4453259;32;20424;-68
2021/10/03 07:17:58;;;;;;;3.58;1.02;;;;;;;15.65;47.48;98081.75;4437440;32;20470;-68
2021/10/03 07:20:24;;;;;;;5.03;0.60;;;;;;;15.86;46.83;98088.41;4454713;32;20065;-68
2021/10/03 07:22:49;;;;;;;6.32;0.52;;;;;;;16.09;46.49;98092.44;4453661;32;20033;-68
2021/10/03 07:25:15;;;;;;;6.40;0.98;;;;;;;15.85;46.76;98092.53;4451406;32;20116;-68
2021/10/03 07:27:40;;;;;;;5.95;0.90;;;;;;;15.92;46.54;98089.84;4455650;32;20109;-68
2021/10/03 07:30:06;;;;;;;7.68;0.95;;;;;;;15.97;46.57;98088.25;4449887;32;20089;-68
2021/10/03 07:32:32;;;;;;;4.22;0.88;;;;;;;16.37;45.98;98078.56;4434649;32;20149;-68
2021/10/03 07:34:59;;;;;;;7.68;0.70;;;;;;;16.37;45.95;98100.47;4449579;32;20155;-68
2021/10/03 07:37:25;;;;;;;7.50;1.00;;;;;;;16.42;45.82;98096.81;4451844;32;20422;-68
2021/10/03 07:39:51;;;;;;;3.58;0.90;;;;;;;16.46;45.32;98089.53;4449706;32;20126;-67
2021/10/03 07:42:16;;;;;;;4.45;0.80;;;;;;;16.32;45.92;98093.59;4450427;32;20081;-68
2021/10/03 07:44:42;;;;;;;5.07;0.70;;;;;;;16.75;45.28;98090.56;4451011;32;20063;-68
2021/10/03 07:47:08;;;;;;;10.43;1.15;;;;;;;16.96;44.81;98102.81;4451431;32;20113;-67
2021/10/03 07:49:34;;;;;;;6.85;0.75;;;;;;;17.06;44.61;98093.31;4451072;32;20053;-68
2021/10/03 07:51:59;;;;;;;9.32;0.80;;;;;;;16.84;44.78;98082.38;4436699;32;20088;-68
2021/10/03 07:54:25;;;;;;;3.92;0.62;;;;;;;16.94;44.76;98074.19;4449657;32;20437;-68
2021/10/03 07:56:51;;;;;;;9.88;1.15;;;;;;;17.05;44.78;98077.56;4452840;32;20068;-68
2021/10/03 07:59:17;;;;;;;4.95;1.02;;;;;;;17.07;44.84;98082.72;4450869;32;20502;-68
2021/10/03 08:01:42;;;;;;;4.78;1.08;;;;;;;17.17;44.70;98084.56;4452182;32;20096;-68
2021/10/03 08:04:12;;;;;;;4.57;1.00;;;;;;;17.22;44.78;98083.72;4449834;32;20385;-68
2021/10/03 08:06:38;;;;;;;10.35;1.00;;;;;;;17.09;44.61;98074.41;4449342;32;20116;-68
2021/10/03 08:09:04;;;;;;;8.85;0.80;;;;;;;17.38;44.49;98096.81;4449683;32;20084;-67
2021/10/03 08:11:30;;;;;;;8.10;1.00;;;;;;;17.58;44.04;98095.37;4450941;32;20085;-68
2021/10/03 08:13:55;;;;;;;7.45;1.12;;;;;;;17.78;43.76;98100.34;4451158;32;20033;-68
2021/10/03 08:16:21;;;;;;;4.05;1.08;;;;;;;17.86;43.51;98099.12;4452674;32;21698;-68
2021/10/03 08:18:48;;;;;;;5.40;0.68;;;;;;;17.91;43.38;98102.41;4450787;32;20090;-68
2021/10/03 08:21:15;;;;;;;5.78;0.82;;;;;;;18.09;43.10;98098.59;4448726;32;20029;-68
2021/10/03 08:23:42;;;;;;;3.80;0.90;;;;;;;18.31;42.97;98110.22;4450140;32;20065;-68
2021/10/03 08:26:08;;;;;;;7.47;0.80;;;;;;;18.75;42.09;98128.31;4448742;32;20151;-68
2021/10/03 08:28:33;;;;;;;10.05;0.75;;;;;;;19.01;41.44;98117.50;4453487;32;20445;-68
2021/10/03 08:30:59;;;;;;;7.20;0.80;;;;;;;19.32;40.81;98116.41;4450547;32;20736;-68
2021/10/03 08:33:25;;;;;;;7.70;1.23;;;;;;;19.22;40.71;98108.91;4451841;32;20465;-68
2021/10/03 08:35:51;;;;;;;12.43;1.77;;;;;;;19.25;40.88;98119.97;4450176;32;20072;-68
2021/10/03 08:38:17;;;;;;;6.10;0.98;;;;;;;19.41;40.73;98112.28;4446490;32;20076;-68
2021/10/03 08:40:43;;;;;;;8.80;1.70;;;;;;;19.21;41.09;98130.94;4451721;32;21331;-68
2021/10/03 08:43:09;;;;;;;11.20;0.95;;;;;;;19.36;40.80;98110.37;4450781;32;20059;-68
2021/10/03 08:45:42;;;;;;;6.60;1.00;;;;;;;19.43;40.94;98115.34;4450621;32;20029;-68
2021/10/03 08:48:10;;;;;;;8.60;1.10;;;;;;;19.83;39.96;98111.50;4448685;32;20076;-68
2021/10/03 08:50:35;;;;;;;10.50;1.00;;;;;;;20.03;40.23;98109.88;4450969;32;20048;-68
2021/10/03 08:53:01;;;;;;;6.50;0.80;;;;;;;19.97;39.93;98105.69;4448810;32;20037;-68
2021/10/03 08:55:27;;;;;;;6.05;1.00;;;;;;;19.92;39.94;98118.03;4433573;32;20110;-68
2021/10/03 08:57:53;;;;;;;6.35;0.93;;;;;;;19.77;40.22;98115.88;4447836;32;21130;-68
2021/10/03 09:00:22;;;;;;;7.10;1.10;;;;;;;19.57;40.89;98105.31;4448727;32;20147;-68
2021/10/03 09:03:06;;;;;;;7.43;0.70;;;;;;;19.93;40.68;98122.41;4450017;32;20426;-68
2021/10/03 09:13:37;;;;;;;8.88;0.93;;;;;;;21.04;38.85;98123.19;3984367;32;15024221;-68
2021/10/03 09:24:21;;;;;;;7.45;0.90;;;;;;;21.78;37.53;98147.28;3982685;32;15023378;-69
2021/10/03 09:27:05;;;;;;;7.57;0.90;;;;;;;21.78;37.53;98147.28;4433193;32;20345;-69
2021/10/03 09:29:36;;;;;;;4.22;1.00;;;;;;;21.75;37.17;98137.00;4438577;32;20041;-69
2021/10/03 09:34:47;;;;;;;6.87;1.00;;;;;;;22.26;36.87;98142.31;3986396;31;15016142;-69
2021/10/03 09:40:15;;;;;;;8.02;1.05;;;;;;;22.23;37.03;98143.47;3984232;32;15022242;-69
2021/10/03 09:42:51;;;;;;;7.32;0.90;;;;;;;21.72;37.46;98131.66;4431389;32;20046;-69
2021/10/03 09:45:21;;;;;;;3.35;0.70;;;;;;;21.54;37.95;98134.34;4433671;32;20065;-68
2021/10/03 09:47:58;;;;;;;7.93;1.00;;;;;;;21.63;37.94;98139.50;4430105;32;20064;-68
2021/10/03 09:50:26;;;;;;;6.00;0.90;;;;;;;22.39;36.82;98139.19;4432684;32;20059;-69
2021/10/03 09:52:52;;;;;;;6.55;0.93;;;;;;;21.64;38.31;98123.81;4434149;32;20043;-69
2021/10/03 09:55:19;;;;;;;7.12;1.10;;;;;;;22.22;37.51;98133.37;4431573;32;20063;-69
2021/10/03 09:57:45;;;;;;;6.60;1.30;;;;;;;21.86;37.43;98142.31;4432742;32;20041;-69
2021/10/03 10:00:15;;;;;;;5.05;0.80;;;;;;;21.54;38.50;98139.34;4435938;32;20579;-69
2021/10/03 10:02:45;;;;;;;5.03;1.15;;;;;;;21.83;37.97;98148.41;4431283;32;20491;-69
2021/10/03 10:05:11;;;;;;;8.82;0.93;;;;;;;21.88;38.28;98158.91;4432387;32;20068;-69
2021/10/03 10:07:39;;;;;;;7.60;0.90;;;;;;;21.56;38.57;98168.91;4432508;32;20081;-69
2021/10/03 10:10:06;;;;;;;9.80;0.90;;;;;;;21.79;38.41;98151.69;4433840;32;20060;-69
2021/10/03 10:12:36;;;;;;;7.32;0.98;;;;;;;21.80;38.48;98161.03;4430126;32;20127;-70
2021/10/03 10:15:05;;;;;;;7.20;1.33;;;;;;;22.14;37.92;98181.31;4435327;32;20064;-70
2021/10/03 10:17:35;;;;;;;8.88;0.82;;;;;;;21.25;39.28;98170.28;4433532;32;20063;-70
2021/10/03 10:22:38;;;;;;;4.93;0.93;;;;;;;22.04;38.69;98178.31;3996466;31;15017055;-70
2021/10/03 10:25:08;;;;;;;6.00;0.98;;;;;;;22.04;38.69;98178.31;4441284;32;20361;-69
2021/10/03 10:30:14;;;;;;;5.12;0.90;;;;;;;21.61;39.03;98178.63;3985329;32;15023928;-70
2021/10/03 10:35:33;;;;;;;7.60;1.15;;;;;;;22.73;38.07;98188.88;3998434;31;15016295;-70
2021/10/03 10:40:35;;;;;;;8.57;1.40;;;;;;;22.87;37.43;98187.25;3996352;31;15015950;-70
2021/10/03 10:45:41;;;;;;;6.70;1.20;;;;;;;22.75;37.35;98180.47;3970206;32;15027432;-69
2021/10/03 10:51:19;;;;;;;5.43;0.98;;;;;;;22.86;37.28;98184.97;3955121;32;15724471;-70
2021/10/03 10:53:45;;;;;;;9.20;1.35;;;;;;;22.86;37.28;98184.97;4435280;32;20320;-69
2021/10/03 10:56:18;;;;;;;6.18;0.93;;;;;;;22.64;37.55;98183.03;4431128;32;20516;-69
2021/10/03 11:04:20;;;;;;;5.28;1.12;;;;;;;23.24;37.48;98179.72;3981597;32;15026259;-69
2021/10/03 11:09:23;;;;;;;3.60;0.95;;;;;;;23.19;37.28;98177.81;3954114;32;15723610;-69
2021/10/03 11:12:00;;;;;;;6.90;1.10;;;;;;;23.19;37.28;98177.81;4431844;32;20100;-69
2021/10/03 11:14:27;;;;;;;7.70;1.17;;;;;;;22.58;37.96;98223.34;4430514;32;20033;-69
2021/10/03 11:16:59;;;;;;;5.40;0.90;;;;;;;23.62;36.76;98182.97;4434224;32;20041;-69
2021/10/03 11:22:12;;;;;;;6.97;1.00;;;;;;;24.44;35.25;98192.78;3982623;32;15025090;-70
2021/10/03 11:27:16;;;;;;;9.52;1.02;;;;;;;24.44;35.28;98200.63;3982189;32;15026984;-69
2021/10/03 11:35:02;;;;;;;7.50;1.15;;;;;;;24.78;34.91;98212.84;3980692;32;15022502;-69
2021/10/03 11:42:52;;;;;;;6.60;1.17;;;;;;;25.37;33.81;98242.06;3982854;32;15026554;-69
2021/10/03 11:45:20;;;;;;;;;;;;;;;25.37;33.81;98242.06;4441600;32;20041;-70
2021/10/03 11:47:57;;;;;;;9.27;1.08;;;;;;;24.50;34.65;98279.53;4437747;32;20280;-69
2021/10/03 11:50:28;;;;;;;11.48;0.90;;;;;;;24.76;34.45;98237.81;4438361;32;20162;-70
2021/10/03 11:52:58;;;;;;;10.50;1.23;;;;;;;24.33;35.20;98245.03;4440109;32;20041;-70
2021/10/03 11:55:34;;;;;;;7.70;0.98;;;;;;;23.90;36.12;98247.81;4441055;32;20068;-70
2021/10/03 11:58:06;;;;;;;5.32;0.70;;;;;;;23.97;35.79;98235.50;4439920;32;20045;-69
2021/10/03 12:00:33;;;;;;;3.50;0.80;;;;;;;24.97;34.33;98250.34;4439061;32;20061;-70
2021/10/03 12:03:07;;;;;;;6.75;1.00;;;;;;;24.90;34.47;98256.97;4437481;32;20091;-70
2021/10/03 12:05:33;;;;;;;7.53;0.95;;;;;;;25.11;33.85;98268.75;4437323;32;20449;-70
2021/10/03 12:08:16;;;;;;;6.50;1.25;;;;;;;25.54;33.46;98272.13;4438793;32;20094;-70
2021/10/03 12:18:37;;;;;;;4.93;0.75;;;;;;;25.28;34.02;98297.47;3990572;32;15022653;-69
2021/10/03 12:24:03;;;;;;;4.37;1.15;;;;;;;25.24;34.42;98307.88;4002183;31;15016209;-70
2021/10/03 12:26:33;;;;;;;3.45;1.02;;;;;;;25.24;34.42;98307.88;4461244;32;20025;-70
2021/10/03 12:37:16;;;;;;;3.95;0.57;;;;;;;25.98;34.07;98324.63;3982778;32;15027516;-69
2021/10/03 12:39:45;;;;;;;5.15;0.70;;;;;;;25.98;34.07;98324.63;4434757;32;20034;-70
2021/10/03 12:42:15;;;;;;;6.72;1.12;;;;;;;26.94;32.19;98334.91;4435727;32;20121;-70
2021/10/03 12:44:43;;;;;;;8.55;1.30;;;;;;;26.78;32.17;98363.31;4440558;32;20480;-70
2021/10/03 12:47:11;;;;;;;6.72;0.93;;;;;;;25.12;34.65;98345.09;4432535;32;20080;-69
2021/10/03 12:49:37;;;;;;;2.75;0.55;;;;;;;24.77;35.83;98363.78;4435511;32;20121;-69
2021/10/03 12:52:05;;;;;;;7.43;0.62;;;;;;;24.00;38.44;98372.22;4437213;32;20423;-69
2021/10/03 12:54:31;;;;;;;2.87;0.93;;;;;;;23.98;38.23;98372.03;4436460;32;20029;-69